Terminal Aerodrome Forecast
Issued by NWS

Home | Current Version | Previous Version | Text Only | Print | Product List | Glossary On
Versions: 1 2 3 4 5 6 7 8 9 10 11 12 13
551
FTUS44 KLIX 240520
TAFMCB
TAF
KMCB 240520Z 2406/2506 06009KT P6SM BKN040 BKN050
     FM241000 VRB03KT 5SM BR SCT008 SCT110
     FM241300 VRB03KT P6SM SCT020 BKN100
     FM242000 07004KT P6SM VCTS SCT030CB BKN090
     FM250100 VRB03KT P6SM SCT030=

USA.gov is the U.S. government's official web portal to all federal, state and local government web resources and services.